Halbert, Texas
Current Conditions -  °F | °C
As of 8:35 AM on Friday 28 Nov 2014 (Local Time) from KOCH Reporting Station
Clear Clear  
Wind Chill: 39°   Ceiling: Unl
Heat Index: 43°   Visibility: 10mi
Dew Point: 34°   Wind: 7mph
Humidity: 70%   Direction: 170°S
Pressure: 30.36"   Gusts: NA
Location:  31.7022°N, 93.9592°W
Report Text: KOCH 281435Z AUTO 17006KT 10SM CLR 06/01 A3036 RMK AO1
Loading
Personal Weather Stations






























Interactive Weather Map New forecast layout! Learn more

10-Day Weather Forecast

Advertisements
Track Severe Weather on mobile